createdAt,value
2017-04-10T00:00:18.895Z,27.53
2017-04-10T00:01:27.679Z,27.24
2017-04-10T00:02:36.429Z,27.53
2017-04-10T00:03:45.787Z,27.34
2017-04-10T00:04:54.880Z,27.44
2017-04-10T00:06:03.672Z,27.34
2017-04-10T00:07:12.454Z,27.44
2017-04-10T00:08:21.232Z,27.34
2017-04-10T00:09:30.012Z,27.62
2017-04-10T00:10:38.802Z,27.53
2017-04-10T00:11:47.893Z,27.62
2017-04-10T00:12:56.665Z,27.62
2017-04-10T00:14:05.440Z,27.53
2017-04-10T00:15:14.213Z,27.62
2017-04-10T00:16:22.961Z,27.53
2017-04-10T00:17:31.686Z,27.53
2017-04-10T00:18:40.433Z,27.62
2017-04-10T00:19:49.211Z,27.53
2017-04-10T00:20:57.982Z,27.53
2017-04-10T00:22:07.052Z,27.53
2017-04-10T00:23:16.727Z,27.62
2017-04-10T00:24:26.053Z,27.72
2017-04-10T00:25:35.094Z,27.62
2017-04-10T00:26:43.869Z,27.53
2017-04-10T00:27:52.651Z,27.53
2017-04-10T00:29:02.333Z,27.53
2017-04-10T00:30:11.425Z,27.44
2017-04-10T00:31:20.189Z,27.53
2017-04-10T00:32:28.930Z,27.53
2017-04-10T00:33:38.008Z,27.72
2017-04-10T00:34:47.729Z,27.72
2017-04-10T00:35:56.506Z,27.44
2017-04-10T00:37:05.281Z,27.62
2017-04-10T00:38:14.378Z,27.62
2017-04-10T00:39:24.043Z,27.72
2017-04-10T00:40:33.053Z,27.62
2017-04-10T00:41:42.095Z,27.62
2017-04-10T00:42:51.175Z,27.92
2017-04-10T00:44:00.575Z,27.92
2017-04-10T00:45:09.351Z,27.92
2017-04-10T00:46:18.738Z,27.92
2017-04-10T00:47:27.492Z,27.92
2017-04-10T00:48:37.156Z,27.92
2017-04-10T00:49:46.550Z,27.92
2017-04-10T00:50:55.636Z,27.72
2017-04-10T00:52:04.413Z,27.92
2017-04-10T00:53:13.806Z,27.92
2017-04-10T00:54:23.172Z,27.62
2017-04-10T00:55:32.220Z,27.72
2017-04-10T00:56:40.988Z,27.92
2017-04-10T00:57:50.381Z,27.92
2017-04-10T00:59:00.590Z,27.92
2017-04-10T01:00:09.671Z,27.62
2017-04-10T01:01:18.763Z,27.82
2017-04-10T01:02:27.841Z,27.72
2017-04-10T01:03:37.227Z,27.92
2017-04-10T01:04:46.300Z,27.53
2017-04-10T01:05:55.693Z,27.92
2017-04-10T01:07:04.462Z,27.62
2017-04-10T01:08:13.529Z,27.62
2017-04-10T01:09:22.260Z,27.53
2017-04-10T01:10:31.647Z,27.72
2017-04-10T01:11:40.729Z,27.92
2017-04-10T01:12:50.083Z,27.42
2017-04-10T01:13:59.741Z,27.62
2017-04-10T01:15:08.522Z,27.92
2017-04-10T01:16:18.256Z,27.72
2017-04-10T01:17:27.037Z,27.61
2017-04-10T01:18:36.063Z,27.71
2017-04-10T01:19:45.145Z,27.81
2017-04-10T01:20:54.228Z,27.81
2017-04-10T01:22:02.974Z,27.72
2017-04-10T01:23:12.017Z,27.91
2017-04-10T01:24:21.407Z,28.02
2017-04-10T01:25:30.152Z,27.72
2017-04-10T01:26:38.896Z,27.91
2017-04-10T01:27:47.636Z,27.82
2017-04-10T01:28:56.452Z,28.02
2017-04-10T01:30:05.439Z,27.82
2017-04-10T01:31:14.218Z,28
2017-04-10T01:32:22.969Z,27.82
2017-04-10T01:33:32.010Z,27.82
2017-04-10T01:34:41.098Z,27.71
2017-04-10T01:35:49.869Z,27.91
2017-04-10T01:36:58.643Z,28
2017-04-10T01:38:07.733Z,28
2017-04-10T01:39:16.514Z,28.09
2017-04-10T01:40:26.208Z,28.39
2017-04-10T01:41:34.957Z,27.71
2017-04-10T01:42:43.699Z,27.91
2017-04-10T01:43:52.476Z,28.09
2017-04-10T01:45:01.567Z,28.09
2017-04-10T01:46:10.344Z,28.19
2017-04-10T01:47:19.094Z,28.19
2017-04-10T01:48:28.438Z,28.09
2017-04-10T01:49:37.215Z,28
2017-04-10T01:50:45.985Z,28.19
2017-04-10T01:51:54.748Z,28.09
2017-04-10T01:53:03.495Z,28.19
2017-04-10T01:54:12.867Z,28
2017-04-10T01:55:21.593Z,28.09
2017-04-10T01:56:30.342Z,28.29
2017-04-10T01:57:39.053Z,28
2017-04-10T01:58:47.784Z,28.19
2017-04-10T01:59:56.558Z,28.09
2017-04-10T02:01:05.304Z,28.19
2017-04-10T02:02:14.344Z,28.19
2017-04-10T02:03:23.109Z,28
2017-04-10T02:04:32.141Z,28.09
2017-04-10T02:05:40.908Z,28.29
2017-04-10T02:06:49.967Z,28.19
2017-04-10T02:07:59.033Z,28
2017-04-10T02:09:07.786Z,28.09
2017-04-10T02:10:16.829Z,28.09
2017-04-10T02:11:25.540Z,28.19
2017-04-10T02:12:34.305Z,28.19
2017-04-10T02:13:43.382Z,28.09
2017-04-10T02:14:53.026Z,28.19
2017-04-10T02:16:02.351Z,28.19
2017-04-10T02:17:11.100Z,28.09
2017-04-10T02:18:19.829Z,28.09
2017-04-10T02:19:28.576Z,28
2017-04-10T02:20:37.906Z,28.09
2017-04-10T02:21:46.671Z,28.09
2017-04-10T02:22:55.426Z,28.09
2017-04-10T02:24:04.998Z,28.09
2017-04-10T02:25:14.073Z,28.39
2017-04-10T02:26:22.840Z,28.09
2017-04-10T02:27:31.900Z,28.19
2017-04-10T02:28:41.592Z,28.09
2017-04-10T02:29:50.663Z,28.09
2017-04-10T02:30:59.741Z,28.09
2017-04-10T02:32:08.487Z,28.09
2017-04-10T02:33:17.510Z,28.09
2017-04-10T02:34:26.276Z,28.09
2017-04-10T02:35:35.343Z,28.09
2017-04-10T02:36:44.720Z,27.81
2017-04-10T02:37:54.092Z,28.37
2017-04-10T02:39:02.859Z,28.09
2017-04-10T02:40:11.592Z,28.09
2017-04-10T02:41:20.307Z,28.09
2017-04-10T02:42:29.077Z,28.09
2017-04-10T02:43:38.154Z,28.09
2017-04-10T02:44:47.799Z,28.09
2017-04-10T02:45:56.820Z,28.09
2017-04-10T02:47:05.579Z,28
2017-04-10T02:48:14.338Z,28.09
2017-04-10T02:49:24.021Z,28.19
2017-04-10T02:50:33.091Z,28.09
2017-04-10T02:51:41.866Z,28
2017-04-10T02:52:50.627Z,28.09
2017-04-10T02:53:59.705Z,28.29
2017-04-10T02:55:08.775Z,28.19
2017-04-10T02:56:17.534Z,28.09
2017-04-10T02:57:26.304Z,27.91
2017-04-10T02:58:35.364Z,27.89
2017-04-10T02:59:44.135Z,28.09
2017-04-10T03:00:53.500Z,27.91
2017-04-10T03:02:02.864Z,27.91
2017-04-10T03:03:11.626Z,27.91
2017-04-10T03:04:20.993Z,27.91
2017-04-10T03:05:30.367Z,27.91
2017-04-10T03:06:39.411Z,28
2017-04-10T03:07:48.139Z,28.39
2017-04-10T03:08:57.513Z,28.09
2017-04-10T03:10:06.587Z,28.09
2017-04-10T03:11:15.652Z,28.19
2017-04-10T03:12:24.384Z,28.09
2017-04-10T03:13:33.085Z,28.09
2017-04-10T03:14:41.811Z,28.09
2017-04-10T03:15:50.885Z,28.39
2017-04-10T03:16:59.678Z,28
2017-04-10T03:18:09.233Z,27.91
2017-04-10T03:19:18.230Z,28
2017-04-10T03:20:26.985Z,28.09
2017-04-10T03:21:35.751Z,28.08
2017-04-10T03:22:44.820Z,28.39
2017-04-10T03:23:54.468Z,27.89
2017-04-10T03:25:03.490Z,27.81
2017-04-10T03:26:12.276Z,27.89
2017-04-10T03:27:21.355Z,27.8
2017-04-10T03:28:30.116Z,27.8
2017-04-10T03:29:39.782Z,27.81
2017-04-10T03:30:48.844Z,27.81
2017-04-10T03:31:58.211Z,28.08
2017-04-10T03:33:07.274Z,28.08
2017-04-10T03:34:16.055Z,28
2017-04-10T03:35:25.438Z,28.08
2017-04-10T03:36:34.854Z,28.08
2017-04-10T03:37:43.910Z,28.19
2017-04-10T03:38:52.972Z,28.09
2017-04-10T03:40:02.327Z,27.98
2017-04-10T03:41:11.354Z,28.08
2017-04-10T03:42:20.462Z,28.28
2017-04-10T03:43:29.234Z,28.28
2017-04-10T03:44:37.982Z,27.91
2017-04-10T03:45:46.722Z,28.09
2017-04-10T03:46:55.751Z,27.89
2017-04-10T03:48:04.818Z,27.8
2017-04-10T03:49:13.582Z,27.8
2017-04-10T03:50:22.622Z,27.71
2017-04-10T03:51:31.338Z,27.71
2017-04-10T03:52:40.677Z,27.7
2017-04-10T03:53:49.397Z,27.71
2017-04-10T03:54:58.154Z,27.71
2017-04-10T03:56:06.921Z,27.81
2017-04-10T03:57:15.667Z,27.51
2017-04-10T03:58:24.431Z,28.09
2017-04-10T03:59:33.211Z,27.91
2017-04-10T04:00:42.598Z,27.91
2017-04-10T04:01:51.363Z,27.71
2017-04-10T04:03:00.129Z,27.81
2017-04-10T04:04:09.500Z,27.71
2017-04-10T04:05:18.266Z,27.71
2017-04-10T04:06:26.997Z,27.61
2017-04-10T04:07:36.031Z,27.71
2017-04-10T04:08:44.762Z,27.71
2017-04-10T04:09:53.517Z,27.61
2017-04-10T04:11:02.253Z,27.51
2017-04-10T04:12:10.975Z,27.71
2017-04-10T04:13:19.734Z,27.42
2017-04-10T04:14:28.808Z,28.09
2017-04-10T04:15:37.691Z,27.61
2017-04-10T04:16:47.060Z,27.71
2017-04-10T04:17:55.824Z,27.51
2017-04-10T04:19:04.594Z,27.61
2017-04-10T04:20:13.351Z,27.51
2017-04-10T04:21:22.084Z,27.51
2017-04-10T04:22:31.113Z,27.51
2017-04-10T04:23:40.501Z,27.42
2017-04-10T04:24:49.264Z,27.71
2017-04-10T04:25:58.287Z,27.51
2017-04-10T04:27:07.662Z,27.61
2017-04-10T04:28:16.736Z,27.61
2017-04-10T04:29:25.482Z,27.33
2017-04-10T04:30:34.220Z,27.33
2017-04-10T04:31:43.296Z,27.51
2017-04-10T04:32:52.057Z,27.51
2017-04-10T04:34:00.791Z,27.42
2017-04-10T04:35:09.518Z,27.42
2017-04-10T04:36:18.590Z,27.44
2017-04-10T04:37:27.349Z,27.42
2017-04-10T04:38:36.107Z,27.23
2017-04-10T04:39:44.858Z,27.33
2017-04-10T04:40:53.620Z,27.23
2017-04-10T04:42:02.393Z,27.13
2017-04-10T04:43:11.759Z,27.23
2017-04-10T04:44:20.519Z,27.24
2017-04-10T04:45:29.255Z,27.34
2017-04-10T04:46:37.979Z,27.24
2017-04-10T04:47:47.038Z,27.34
2017-04-10T04:48:55.753Z,27.14
2017-04-10T04:50:04.526Z,27.34
2017-04-10T04:51:13.600Z,27.24
2017-04-10T04:52:22.358Z,27.34
2017-04-10T04:53:31.126Z,27.34
2017-04-10T04:54:39.890Z,27.34
2017-04-10T04:55:48.648Z,27.24
2017-04-10T04:56:57.442Z,27.14
2017-04-10T04:58:06.179Z,27.14
2017-04-10T04:59:14.905Z,26.95
2017-04-10T05:00:23.672Z,27.14
2017-04-10T05:01:33.032Z,27.24
2017-04-10T05:02:41.801Z,27.04
2017-04-10T05:03:51.186Z,27.14
2017-04-10T05:04:59.951Z,27.04
2017-04-10T05:06:09.014Z,27.14
2017-04-10T05:07:17.776Z,27.24
2017-04-10T05:08:26.850Z,27.24
2017-04-10T05:09:35.594Z,27.14
2017-04-10T05:10:44.345Z,27.04
2017-04-10T05:11:53.693Z,27.04
2017-04-10T05:13:02.694Z,26.76
2017-04-10T05:14:11.427Z,26.95
2017-04-10T05:15:20.191Z,26.95
2017-04-10T05:16:28.946Z,26.86
2017-04-10T05:17:38.007Z,27.04
2017-04-10T05:18:46.756Z,26.95
2017-04-10T05:19:55.782Z,26.95
2017-04-10T05:21:04.533Z,26.76
2017-04-10T05:22:13.610Z,27.06
2017-04-10T05:23:22.380Z,26.87
2017-04-10T05:24:31.429Z,26.87
2017-04-10T05:25:40.501Z,26.67
2017-04-10T05:26:49.543Z,26.77
2017-04-10T05:27:58.264Z,26.67
2017-04-10T05:29:07.031Z,26.87
2017-04-10T05:30:15.788Z,26.77
2017-04-10T05:31:24.830Z,26.67
2017-04-10T05:32:33.561Z,26.77
2017-04-10T05:33:42.628Z,26.67
2017-04-10T05:34:51.399Z,26.57
2017-04-10T05:36:00.154Z,26.87
2017-04-10T05:37:08.919Z,26.19
2017-04-10T05:38:18.290Z,26.67
2017-04-10T05:39:27.030Z,26.87
2017-04-10T05:40:35.753Z,26.87
2017-04-10T05:41:44.826Z,26.87
2017-04-10T05:42:53.589Z,26.97
2017-04-10T05:44:02.652Z,26.57
2017-04-10T05:45:11.719Z,26.97
2017-04-10T05:46:20.490Z,26.77
2017-04-10T05:47:29.571Z,26.77
2017-04-10T05:48:38.617Z,27.06
2017-04-10T05:49:47.387Z,26.59
2017-04-10T05:50:56.144Z,26.4
2017-04-10T05:52:04.903Z,26.67
2017-04-10T05:53:13.668Z,26.88
2017-04-10T05:54:22.436Z,26.4
2017-04-10T05:55:31.482Z,26.3
2017-04-10T05:56:40.213Z,26.68
2017-04-10T05:57:48.968Z,26.01
2017-04-10T05:58:57.767Z,26.59
2017-04-10T06:00:07.115Z,26.1
2017-04-10T06:01:15.845Z,26.59
2017-04-10T06:02:24.617Z,26.1
2017-04-10T06:03:33.690Z,26.5
2017-04-10T06:04:42.665Z,26.1
2017-04-10T06:05:51.434Z,26.1
2017-04-10T06:07:00.201Z,26.4
2017-04-10T06:08:09.243Z,26.4
2017-04-10T06:09:18.276Z,26.59
2017-04-10T06:10:27.339Z,26.4
2017-04-10T06:11:36.101Z,26.3
2017-04-10T06:12:44.834Z,26.3
2017-04-10T06:13:53.561Z,26.3
2017-04-10T06:15:02.300Z,26.3
2017-04-10T06:16:11.058Z,26.3
2017-04-10T06:17:19.828Z,26.2
2017-04-10T06:18:28.889Z,26.2
2017-04-10T06:19:38.307Z,26.01
2017-04-10T06:20:47.079Z,25.72
2017-04-10T06:21:56.454Z,25.92
2017-04-10T06:23:05.210Z,25.82
2017-04-10T06:24:13.972Z,25.92
2017-04-10T06:25:22.734Z,25.92
2017-04-10T06:26:31.799Z,25.92
2017-04-10T06:27:40.770Z,25.92
2017-04-10T06:28:49.844Z,25.92
2017-04-10T06:29:58.912Z,25.92
2017-04-10T06:31:07.973Z,25.82
2017-04-10T06:32:17.051Z,25.92
2017-04-10T06:33:25.812Z,26.01
2017-04-10T06:34:34.573Z,25.82
2017-04-10T06:35:43.619Z,25.82
2017-04-10T06:36:52.639Z,26.01
2017-04-10T06:38:01.700Z,25.62
2017-04-10T06:39:10.462Z,25.92
2017-04-10T06:40:19.221Z,25.82
2017-04-10T06:41:28.250Z,25.92
2017-04-10T06:42:36.988Z,25.92
2017-04-10T06:43:45.685Z,25.92
2017-04-10T06:44:54.381Z,25.92
2017-04-10T06:46:03.129Z,25.82
2017-04-10T06:47:11.884Z,25.92
2017-04-10T06:48:20.627Z,25.92
2017-04-10T06:49:29.356Z,25.82
2017-04-10T06:50:38.135Z,25.82
2017-04-10T06:51:46.881Z,25.82
2017-04-10T06:52:56.171Z,25.82
2017-04-10T06:54:05.496Z,25.93
2017-04-10T06:55:14.258Z,25.82
2017-04-10T06:56:23.327Z,25.72
2017-04-10T06:57:32.384Z,25.82
2017-04-10T06:58:41.246Z,25.62
2017-04-10T06:59:50.024Z,25.43
2017-04-10T07:00:58.981Z,26.12
2017-04-10T07:02:07.762Z,26.12
2017-04-10T07:03:16.494Z,25.54
2017-04-10T07:04:25.572Z,26.41
2017-04-10T07:05:34.646Z,25.93
2017-04-10T07:06:43.794Z,26.12
2017-04-10T07:07:52.516Z,25.93
2017-04-10T07:09:01.283Z,25.93
2017-04-10T07:10:10.355Z,26.03
2017-04-10T07:11:19.124Z,25.54
2017-04-10T07:12:27.900Z,25.73
2017-04-10T07:13:37.016Z,25.83
2017-04-10T07:14:45.763Z,26.03
2017-04-10T07:15:54.799Z,25.83
2017-04-10T07:17:03.548Z,25.44
2017-04-10T07:18:12.277Z,25.93
2017-04-10T07:19:20.972Z,25.93
2017-04-10T07:20:29.968Z,25.54
2017-04-10T07:21:39.003Z,25.93
2017-04-10T07:22:48.066Z,25.25
2017-04-10T07:23:56.793Z,25.73
2017-04-10T07:25:05.562Z,25.73
2017-04-10T07:26:14.932Z,25.44
2017-04-10T07:27:24.008Z,25.83
2017-04-10T07:28:32.769Z,26.03
2017-04-10T07:29:41.877Z,26.03
2017-04-10T07:30:50.952Z,25.63
2017-04-10T07:32:00.029Z,25.44
2017-04-10T07:33:09.072Z,25.44
2017-04-10T07:34:17.768Z,25.73
2017-04-10T07:35:26.497Z,25.44
2017-04-10T07:36:35.571Z,25.73
2017-04-10T07:37:44.637Z,25.54
2017-04-10T07:38:53.400Z,25.83
2017-04-10T07:40:02.169Z,25.54
2017-04-10T07:41:11.206Z,25.93
2017-04-10T07:42:19.898Z,25.44
2017-04-10T07:43:28.626Z,25.73
2017-04-10T07:44:37.671Z,25.73
2017-04-10T07:45:46.395Z,25.35
2017-04-10T07:46:55.472Z,25.83
2017-04-10T07:48:04.283Z,25.93
2017-04-10T07:49:13.648Z,25.93
2017-04-10T07:50:22.418Z,25.93
2017-04-10T07:51:31.757Z,26.21
2017-04-10T07:52:40.475Z,26.03
2017-04-10T07:53:49.242Z,25.25
2017-04-10T07:54:58.298Z,26.12
2017-04-10T07:56:07.011Z,25.25
2017-04-10T07:57:16.035Z,25.93
2017-04-10T07:58:25.105Z,25.93
2017-04-10T07:59:33.868Z,25.93
2017-04-10T08:00:42.928Z,25.35
2017-04-10T08:01:51.722Z,25.35
2017-04-10T08:03:00.461Z,25.93
2017-04-10T08:04:09.200Z,25.93
2017-04-10T08:05:18.273Z,25.83
2017-04-10T08:06:27.048Z,25.25
2017-04-10T08:07:35.849Z,25.93
2017-04-10T08:08:44.587Z,25.83
2017-04-10T08:09:53.290Z,25.35
2017-04-10T08:11:02.011Z,25.25
2017-04-10T08:12:11.099Z,25.83
2017-04-10T08:13:19.866Z,25.93
2017-04-10T08:14:28.965Z,25.35
2017-04-10T08:15:37.761Z,25.93
2017-04-10T08:16:46.487Z,25.54
2017-04-10T08:17:55.257Z,25.93
2017-04-10T08:19:04.025Z,25.35
2017-04-10T08:20:12.768Z,25.35
2017-04-10T08:21:21.483Z,25.73
2017-04-10T08:22:30.248Z,25.83
2017-04-10T08:23:39.336Z,25.35
2017-04-10T08:24:48.407Z,25.83
2017-04-10T08:25:57.176Z,25.83
2017-04-10T08:27:05.947Z,25.83
2017-04-10T08:28:14.689Z,25.65
2017-04-10T08:29:23.452Z,25.74
2017-04-10T08:30:32.526Z,25.73
2017-04-10T08:31:41.838Z,25.46
2017-04-10T08:32:50.597Z,25.74
2017-04-10T08:33:59.643Z,25.94
2017-04-10T08:35:08.674Z,25.36
2017-04-10T08:36:17.438Z,25.74
2017-04-10T08:37:26.213Z,25.94
2017-04-10T08:38:34.971Z,25.94
2017-04-10T08:39:44.041Z,25.94
2017-04-10T08:40:52.836Z,25.65
2017-04-10T08:42:01.904Z,25.74
2017-04-10T08:43:10.974Z,25.94
2017-04-10T08:44:19.735Z,25.74
2017-04-10T08:45:28.480Z,25.55
2017-04-10T08:46:37.186Z,25.84
2017-04-10T08:47:45.946Z,25.55
2017-04-10T08:48:54.687Z,25.84
2017-04-10T08:50:03.729Z,25.74
2017-04-10T08:51:12.489Z,25.94
2017-04-10T08:52:21.256Z,25.74
2017-04-10T08:53:30.027Z,25.26
2017-04-10T08:54:39.101Z,25.65
2017-04-10T08:55:48.174Z,25.36
2017-04-10T08:56:56.949Z,25.55
2017-04-10T08:58:06.030Z,25.36
2017-04-10T08:59:15.103Z,25.08
2017-04-10T09:00:23.871Z,24.5
2017-04-10T09:01:32.627Z,24.6
2017-04-10T09:02:41.388Z,24.88
2017-04-10T09:03:50.150Z,24.69
2017-04-10T09:04:59.224Z,24.4
2017-04-10T09:06:08.284Z,24.5
2017-04-10T09:07:17.055Z,24.21
2017-04-10T09:08:25.798Z,24.22
2017-04-10T09:09:34.828Z,24.51
2017-04-10T09:10:43.873Z,24.32
2017-04-10T09:11:53.198Z,24.03
2017-04-10T09:13:02.241Z,23.93
2017-04-10T09:14:11.312Z,24.22
2017-04-10T09:15:20.052Z,24.03
2017-04-10T09:16:28.778Z,24.22
2017-04-10T09:17:37.841Z,24.32
2017-04-10T09:18:46.601Z,24.03
2017-04-10T09:19:55.342Z,24.32
2017-04-10T09:21:04.426Z,24.32
2017-04-10T09:22:13.498Z,23.93
2017-04-10T09:23:22.872Z,23.93
2017-04-10T09:24:31.879Z,23.54
2017-04-10T09:25:40.627Z,23.54
2017-04-10T09:26:49.350Z,24.22
2017-04-10T09:27:58.112Z,24.41
2017-04-10T09:29:06.885Z,23.93
2017-04-10T09:30:15.954Z,24.51
2017-04-10T09:31:25.001Z,24.71
2017-04-10T09:32:34.034Z,24.22
2017-04-10T09:33:42.783Z,24.51
2017-04-10T09:34:51.481Z,24.51
2017-04-10T09:36:00.506Z,24.8
2017-04-10T09:37:09.277Z,24.71
2017-04-10T09:38:18.401Z,24.8
2017-04-10T09:39:27.174Z,24.5
2017-04-10T09:40:36.251Z,24.71
2017-04-10T09:41:45.314Z,24.69
2017-04-10T09:42:54.377Z,24.5
2017-04-10T09:44:03.149Z,24.4
2017-04-10T09:45:11.905Z,24.69
2017-04-10T09:46:20.639Z,24.32
2017-04-10T09:47:29.354Z,24.41
2017-04-10T09:48:38.400Z,24.51
2017-04-10T09:49:47.174Z,24.41
2017-04-10T09:50:55.915Z,24.51
2017-04-10T09:52:04.953Z,24.61
2017-04-10T09:53:13.691Z,24.22
2017-04-10T09:54:22.735Z,24.8
2017-04-10T09:55:31.505Z,24.61
2017-04-10T09:56:40.810Z,24.8
2017-04-10T09:57:49.570Z,24.71
2017-04-10T09:58:58.337Z,24.8
2017-04-10T10:00:07.387Z,24.69
2017-04-10T10:01:16.155Z,25.09
2017-04-10T10:02:25.547Z,25.18
2017-04-10T10:03:34.293Z,24.88
2017-04-10T10:04:43.314Z,25.08
2017-04-10T10:05:52.079Z,24.6
2017-04-10T10:07:00.843Z,25.08
2017-04-10T10:08:09.625Z,24.69
2017-04-10T10:09:18.706Z,24.6
2017-04-10T10:10:27.468Z,25.08
2017-04-10T10:11:36.239Z,24.69
2017-04-10T10:12:45.193Z,24.69
2017-04-10T10:13:54.277Z,25.27
2017-04-10T10:15:03.354Z,24.79
2017-04-10T10:16:12.423Z,24.32
2017-04-10T10:17:21.183Z,23.65
2017-04-10T10:18:29.922Z,23.18
2017-04-10T10:19:38.709Z,22.41
2017-04-10T10:20:47.729Z,22.03
2017-04-10T10:21:56.458Z,21.84
2017-04-10T10:23:05.530Z,22.23
2017-04-10T10:24:14.599Z,22.23
2017-04-10T10:25:23.363Z,22.13
2017-04-10T10:26:32.737Z,22.51
2017-04-10T10:27:41.813Z,22.8
2017-04-10T10:28:50.579Z,22.69
2017-04-10T10:29:59.315Z,22.79
2017-04-10T10:31:08.038Z,23.08
2017-04-10T10:32:16.812Z,23.08
2017-04-10T10:33:25.572Z,23.18
2017-04-10T10:34:34.636Z,23.37
2017-04-10T10:35:43.403Z,23.18
2017-04-10T10:36:52.151Z,23.37
2017-04-10T10:38:01.182Z,23.27
2017-04-10T10:39:09.935Z,23.75
2017-04-10T10:40:18.674Z,23.75
2017-04-10T10:41:27.409Z,23.55
2017-04-10T10:42:36.167Z,23.36
2017-04-10T10:43:44.933Z,23.75
2017-04-10T10:44:54.012Z,23.85
2017-04-10T10:46:03.038Z,23.94
2017-04-10T10:47:12.107Z,23.64
2017-04-10T10:48:21.173Z,24.32
2017-04-10T10:49:30.233Z,24.22
2017-04-10T10:50:39.303Z,24.22
2017-04-10T10:51:48.076Z,24.41
2017-04-10T10:52:56.817Z,24.22
2017-04-10T10:54:05.557Z,24.61
2017-04-10T10:55:14.285Z,24.22
2017-04-10T10:56:23.052Z,23.75
2017-04-10T10:57:32.162Z,23.46
2017-04-10T10:58:41.484Z,23.55
2017-04-10T10:59:50.232Z,23.46
2017-04-10T11:00:58.946Z,23.65
2017-04-10T11:02:07.711Z,23.55
2017-04-10T11:03:16.782Z,23.75
2017-04-10T11:04:25.541Z,23.64
2017-04-10T11:05:34.609Z,24.32
2017-04-10T11:06:43.982Z,23.93
2017-04-10T11:07:52.781Z,24.22
2017-04-10T11:09:01.546Z,24.32
2017-04-10T11:10:10.315Z,24.51
2017-04-10T11:11:19.408Z,24.41
2017-04-10T11:12:28.135Z,24.41
2017-04-10T11:13:36.907Z,24.8
2017-04-10T11:14:45.669Z,24.51
2017-04-10T11:15:54.731Z,24.61
2017-04-10T11:17:03.466Z,24.51
2017-04-10T11:18:12.227Z,24.8
2017-04-10T11:19:20.967Z,24.71
2017-04-10T11:20:30.307Z,24.32
2017-04-10T11:21:39.071Z,24.71
2017-04-10T11:22:47.839Z,24.79
2017-04-10T11:23:56.589Z,24.41
2017-04-10T11:25:05.313Z,24.32
2017-04-10T11:26:14.047Z,25.08
2017-04-10T11:27:22.801Z,24.69
2017-04-10T11:28:31.552Z,24.88
2017-04-10T11:29:40.327Z,25.18
2017-04-10T11:30:49.100Z,25.18
2017-04-10T11:31:57.869Z,25.18
2017-04-10T11:33:06.640Z,25.08
2017-04-10T11:34:15.709Z,24.6
2017-04-10T11:35:24.775Z,24.69
2017-04-10T11:36:33.544Z,24.88
2017-04-10T11:37:42.302Z,25.08
2017-04-10T11:38:51.042Z,24.79
2017-04-10T11:40:00.105Z,24.98
2017-04-10T11:41:08.866Z,25.08
2017-04-10T11:42:17.903Z,24.88
2017-04-10T11:43:26.954Z,24.79
2017-04-10T11:44:36.021Z,25.27
2017-04-10T11:45:44.762Z,24.98
2017-04-10T11:46:53.488Z,24.98
2017-04-10T11:48:02.233Z,24.98
2017-04-10T11:49:10.956Z,24.88
2017-04-10T11:50:19.729Z,24.98
2017-04-10T11:51:28.492Z,25.18
2017-04-10T11:52:37.232Z,24.69
2017-04-10T11:53:45.957Z,24.8
2017-04-10T11:54:54.718Z,24.8
2017-04-10T11:56:03.468Z,24.71
2017-04-10T11:57:12.542Z,24.71
2017-04-10T11:58:21.602Z,24.61
2017-04-10T11:59:30.670Z,24.32
2017-04-10T12:00:39.741Z,24.32
2017-04-10T12:01:48.470Z,24.9
2017-04-10T12:02:57.202Z,24.22
2017-04-10T12:04:05.954Z,24.61
2017-04-10T12:05:14.980Z,24.71
2017-04-10T12:06:23.731Z,24.71
2017-04-10T12:07:32.493Z,24.71
2017-04-10T12:08:41.258Z,24.71
2017-04-10T12:09:50.030Z,24.9
2017-04-10T12:10:59.066Z,24.61
2017-04-10T12:12:07.787Z,24.98
2017-04-10T12:13:16.553Z,24.69
2017-04-10T12:14:25.328Z,24.6
2017-04-10T12:15:34.069Z,24.6
2017-04-10T12:16:43.094Z,24.98
2017-04-10T12:17:52.947Z,24.5
2017-04-10T12:19:01.688Z,24.79
2017-04-10T12:20:10.418Z,24.79
2017-04-10T12:21:19.183Z,25.08
2017-04-10T12:22:27.920Z,25.08
2017-04-10T12:23:36.984Z,25.08
2017-04-10T12:24:46.357Z,25.27
2017-04-10T12:25:55.428Z,25.18
2017-04-10T12:27:04.200Z,25.08
2017-04-10T12:28:13.271Z,25.56
2017-04-10T12:29:22.063Z,25.27
2017-04-10T12:30:31.180Z,25.47
2017-04-10T12:31:39.943Z,25.37
2017-04-10T12:32:49.013Z,25.66
2017-04-10T12:33:57.751Z,25.36
2017-04-10T12:35:06.490Z,25.55
2017-04-10T12:36:15.228Z,25.65
2017-04-10T12:37:24.564Z,25.56
2017-04-10T12:38:33.295Z,25.84
2017-04-10T12:39:42.316Z,25.84
2017-04-10T12:40:51.095Z,25.94
2017-04-10T12:42:00.138Z,25.74
2017-04-10T12:43:09.719Z,25.84
2017-04-10T12:44:18.485Z,25.76
2017-04-10T12:45:27.245Z,25.74
2017-04-10T12:46:36.286Z,25.65
2017-04-10T12:47:45.313Z,25.74
2017-04-10T12:48:54.077Z,25.84
2017-04-10T12:50:02.819Z,25.94
2017-04-10T12:51:11.541Z,25.55
2017-04-10T12:52:20.310Z,25.74
2017-04-10T12:53:29.083Z,25.94
2017-04-10T12:54:38.145Z,26.23
2017-04-10T12:55:46.908Z,26.04
2017-04-10T12:56:55.673Z,25.94
2017-04-10T12:58:04.437Z,25.94
2017-04-10T12:59:13.176Z,26.42
2017-04-10T13:00:21.870Z,25.74
2017-04-10T13:01:30.599Z,26.04
2017-04-10T13:02:39.669Z,26.23
2017-04-10T13:03:48.396Z,25.94
2017-04-10T13:04:57.391Z,26.04
2017-04-10T13:06:06.118Z,26.23
2017-04-10T13:07:14.876Z,25.26
2017-04-10T13:08:23.675Z,25.36
2017-04-10T13:09:32.447Z,25.84
2017-04-10T13:10:41.531Z,25.94
2017-04-10T13:11:50.301Z,25.76
2017-04-10T13:12:59.056Z,25.76
2017-04-10T13:14:07.825Z,25.95
2017-04-10T13:15:16.597Z,25.27
2017-04-10T13:16:25.358Z,25.56
2017-04-10T13:17:34.117Z,26.05
2017-04-10T13:18:43.701Z,25.85
2017-04-10T13:19:52.760Z,25.76
2017-04-10T13:21:01.521Z,26.05
2017-04-10T13:22:10.908Z,25.47
2017-04-10T13:23:19.989Z,25.76
2017-04-10T13:24:29.033Z,25.47
2017-04-10T13:25:37.765Z,25.95
2017-04-10T13:26:46.508Z,25.27
2017-04-10T13:27:55.212Z,26.14
2017-04-10T13:29:04.239Z,26.23
2017-04-10T13:30:13.293Z,26.32
2017-04-10T13:31:22.092Z,26.14
2017-04-10T13:32:30.853Z,25.55
2017-04-10T13:33:39.596Z,26.04
2017-04-10T13:34:48.299Z,26.04
2017-04-10T13:35:57.041Z,26.04
2017-04-10T13:37:05.795Z,25.46
2017-04-10T13:38:14.897Z,25.56
2017-04-10T13:39:23.666Z,25.46
2017-04-10T13:40:32.392Z,25.55
2017-04-10T13:41:41.403Z,25.94
2017-04-10T13:42:50.140Z,25.94
2017-04-10T13:43:58.909Z,26.04
2017-04-10T13:45:07.669Z,26.04
2017-04-10T13:46:16.748Z,26.32
2017-04-10T13:47:25.509Z,25.84
2017-04-10T13:48:34.553Z,26.23
2017-04-10T13:49:43.489Z,26.52
2017-04-10T13:50:52.309Z,26.23
2017-04-10T13:52:01.392Z,26.23
2017-04-10T13:53:10.124Z,26.52
2017-04-10T13:54:18.857Z,26.52
2017-04-10T13:55:27.621Z,26.23
2017-04-10T13:56:36.593Z,26.23
2017-04-10T13:57:45.664Z,26.42
2017-04-10T13:58:54.433Z,25.94
2017-04-10T14:00:03.195Z,25.94
2017-04-10T14:01:11.937Z,25.94
2017-04-10T14:02:20.976Z,25.46
2017-04-10T14:03:29.719Z,25.46
2017-04-10T14:04:38.742Z,26.15
2017-04-10T14:05:47.811Z,26.14
2017-04-10T14:06:56.579Z,26.42
2017-04-10T14:08:05.350Z,26.32
2017-04-10T14:09:14.114Z,26.05
2017-04-10T14:10:22.871Z,26.15
2017-04-10T14:11:31.636Z,25.74
2017-04-10T14:12:40.374Z,25.85
2017-04-10T14:13:49.395Z,26.15
2017-04-10T14:14:58.169Z,26.04
2017-04-10T14:16:06.936Z,25.95
2017-04-10T14:17:15.702Z,26.43
2017-04-10T14:18:24.773Z,26.14
2017-04-10T14:19:33.818Z,26.04
2017-04-10T14:20:42.568Z,25.46
2017-04-10T14:21:51.350Z,25.47
2017-04-10T14:23:01.044Z,25.55
2017-04-10T14:24:09.792Z,26.15
2017-04-10T14:25:18.516Z,26.05
2017-04-10T14:26:27.884Z,26.25
2017-04-10T14:27:36.956Z,25.56
2017-04-10T14:28:46.178Z,26.25
2017-04-10T14:29:54.944Z,26.14
2017-04-10T14:31:03.713Z,26.25
2017-04-10T14:32:12.778Z,26.15
2017-04-10T14:33:22.151Z,25.46
2017-04-10T14:34:30.915Z,26.23
2017-04-10T14:35:40.265Z,25.47
2017-04-10T14:36:48.994Z,25.46
2017-04-10T14:37:58.066Z,26.04
2017-04-10T14:39:07.140Z,25.47
2017-04-10T14:40:16.167Z,25.46
2017-04-10T14:41:24.873Z,25.46
2017-04-10T14:42:33.577Z,25.46
2017-04-10T14:43:42.618Z,25.65
2017-04-10T14:44:51.394Z,25.74
2017-04-10T14:46:00.161Z,25.84
2017-04-10T14:47:09.544Z,25.74
2017-04-10T14:48:18.891Z,25.94
2017-04-10T14:49:27.622Z,25.74
2017-04-10T14:50:36.358Z,25.65